Time;durP1;ratioP1;P1;durP2;ratioP2;P2;SDS_P1;SDS_P2;PMS_P1;PMS_P2;Temp;Humidity;BMP_temperature;BMP_pressure;BME280_temperature;BME280_humidity;BME280_pressure;Samples;Min_cycle;Max_cycle;Signal;HPM_P1;HPM_P2
2021/09/16 00:02:00;;;;;;;;;;;;;;;16.17;100.00;99104.88;5095414;28;19930;-79
2021/09/16 00:04:28;;;;;;;;;;;;;;;15.77;100.00;99105.97;5064794;28;19927;-79
2021/09/16 00:06:55;;;;;;;;;;;;;;;15.74;100.00;99104.06;5095787;28;19924;-80
2021/09/16 00:09:22;;;;;;;;;;;;;;;16.16;100.00;99103.28;5114131;28;19978;-80
2021/09/16 00:11:49;;;;;;;;;;;;;;;16.17;100.00;99104.88;5096042;28;19924;-80
2021/09/16 00:14:17;;;;;;;;;;;;;;;16.28;100.00;99108.06;5062933;28;19928;-80
2021/09/16 00:16:45;;;;;;;;;;;;;;;15.99;100.00;99110.38;5078859;28;19928;-80
2021/09/16 00:19:12;;;;;;;;;;;;;;;16.08;100.00;99104.78;5095877;28;20286;-80
2021/09/16 00:21:39;;;;;;;;;;;;;;;15.90;100.00;99113.13;5081686;28;19924;-80
2021/09/16 00:24:06;;;;;;;;;;;;;;;15.88;100.00;99101.53;5095869;28;19924;-79
2021/09/16 00:26:33;;;;;;;;;;;;;;;15.93;100.00;99100.94;5113763;28;20045;-79
2021/09/16 00:29:00;;;;;;;;;;;;;;;16.31;100.00;99102.75;5095332;28;19930;-79
2021/09/16 00:31:27;;;;;;;;;;;;;;;16.14;100.00;99105.81;5095713;28;20005;-80
2021/09/16 00:33:54;;;;;;;;;;;;;;;16.40;100.00;99095.13;5095685;28;19924;-79
2021/09/16 00:36:21;;;;;;;;;;;;;;;16.52;100.00;99099.94;5086175;28;20383;-80
2021/09/16 00:39:03;;;;;;;;;;;;;;;16.36;100.00;99088.84;5095537;28;19954;-79
2021/09/16 00:41:30;;;;;;;;;;;;;;;16.52;100.00;99096.31;5113685;28;19938;-80
2021/09/16 00:43:58;;;;;;;;;;;;;;;16.72;100.00;99088.28;5095325;28;20490;-80
2021/09/16 00:46:26;;;;;;;;;;;;;;;16.93;100.00;99099.47;5096879;28;19976;-80
2021/09/16 00:48:53;;;;;;;;;;;;;;;16.93;100.00;99088.19;5116649;28;19923;-79
2021/09/16 00:51:21;;;;;;;;;;;;;;;17.12;100.00;99083.38;5078803;28;20298;-79
2021/09/16 00:53:49;;;;;;;;;;;;;;;17.23;100.00;99092.19;5092196;28;19928;-79
2021/09/16 00:56:17;;;;;;;;;;;;;;;17.36;100.00;99092.81;5117171;28;19924;-79
2021/09/16 00:58:46;;;;;;;;;;;;;;;17.38;100.00;99098.78;5105066;28;19924;-80
2021/09/16 01:01:15;;;;;;;;;;;;;;;17.06;100.00;99097.31;5097575;28;20014;-79
2021/09/16 01:03:42;;;;;;;;;;;;;;;17.25;100.00;99092.50;5116934;28;20402;-79
2021/09/16 01:06:09;;;;;;;;;;;;;;;17.34;100.00;99090.47;5116935;28;19939;-79
2021/09/16 01:08:37;;;;;;;;;;;;;;;17.47;100.00;99098.84;5082176;28;19974;-79
2021/09/16 01:11:04;;;;;;;;;;;;;;;17.50;100.00;99081.75;5079316;28;19969;-79
2021/09/16 01:13:31;;;;;;;;;;;;;;;17.67;100.00;99070.91;5084978;28;19924;-79
2021/09/16 01:15:58;;;;;;;;;;;;;;;17.59;100.00;99066.81;5081383;28;20383;-79
2021/09/16 01:18:26;;;;;;;;;;;;;;;17.60;100.00;99071.22;5115966;28;19924;-80
2021/09/16 01:20:54;;;;;;;;;;;;;;;17.24;100.00;99062.69;5078277;28;19955;-79
2021/09/16 01:23:23;;;;;;;;;;;;;;;17.50;100.00;99069.66;5061397;28;19924;-79
2021/09/16 01:25:50;;;;;;;;;;;;;;;17.73;100.00;99069.03;5078339;28;19928;-80
2021/09/16 01:28:18;;;;;;;;;;;;;;;17.63;100.00;99062.59;5096016;28;20011;-79
2021/09/16 01:30:45;;;;;;;;;;;;;;;17.75;100.00;99063.69;5106937;28;20275;-80
2021/09/16 01:33:13;;;;;;;;;;;;;;;17.90;100.00;99064.63;5084140;28;19931;-80
2021/09/16 01:35:40;;;;;;;;;;;;;;;17.79;100.00;99067.13;5089322;28;20010;-79
2021/09/16 01:38:07;;;;;;;;;;;;;;;17.76;100.00;99065.25;5095853;28;19924;-80
2021/09/16 01:40:34;;;;;;;;;;;;;;;17.74;100.00;99067.75;5077824;28;19930;-80
2021/09/16 01:43:01;;;;;;;;;;;;;;;17.67;100.00;99062.44;5096339;28;19930;-80
2021/09/16 01:45:28;;;;;;;;;;;;;;;17.43;100.00;99058.63;5075902;28;20307;-80
2021/09/16 01:47:56;;;;;;;;;;;;;;;17.51;100.00;99055.06;5078005;28;19924;-79
2021/09/16 01:50:23;;;;;;;;;;;;;;;17.72;100.00;99061.81;5110310;28;19924;-80
2021/09/16 01:52:51;;;;;;;;;;;;;;;17.73;100.00;99060.56;5088200;28;19935;-79
2021/09/16 01:55:19;;;;;;;;;;;;;;;18.00;100.00;99054.88;5114008;28;19970;-79
2021/09/16 01:57:46;;;;;;;;;;;;;;;18.04;100.00;99058.31;5095599;28;19924;-79
2021/09/16 02:00:14;;;;;;;;;;;;;;;18.06;100.00;99061.44;5110027;28;20390;-80
2021/09/16 02:02:42;;;;;;;;;;;;;;;18.00;100.00;99057.69;5060814;28;19925;-79
2021/09/16 02:05:09;;;;;;;;;;;;;;;17.96;100.00;99057.09;5077541;28;20317;-79
2021/09/16 02:07:36;;;;;;;;;;;;;;;17.89;100.00;99060.22;5096987;28;19924;-79
2021/09/16 02:10:04;;;;;;;;;;;;;;;17.97;100.00;99061.47;5104018;28;19924;-80
2021/09/16 02:12:31;;;;;;;;;;;;;;;17.74;100.00;99057.25;5077567;28;19931;-80
2021/09/16 02:14:58;;;;;;;;;;;;;;;17.68;100.00;99061.16;5067312;28;19935;-79
2021/09/16 02:17:25;;;;;;;;;;;;;;;17.84;100.00;99061.63;5093906;28;20073;-79
2021/09/16 02:19:52;;;;;;;;;;;;;;;18.05;100.00;99059.88;5107265;28;19993;-79
2021/09/16 02:22:19;;;;;;;;;;;;;;;17.85;100.00;99056.78;5077186;28;19932;-80
2021/09/16 02:24:47;;;;;;;;;;;;;;;18.19;100.00;99050.72;5080326;28;19924;-79
2021/09/16 02:27:14;;;;;;;;;;;;;;;17.84;100.00;99058.03;5085481;28;19925;-80
2021/09/16 02:29:41;;;;;;;;;;;;;;;18.00;100.00;99057.69;5077035;28;19939;-80
2021/09/16 02:32:08;;;;;;;;;;;;;;;18.01;100.00;99050.78;5087619;28;19988;-80
2021/09/16 02:34:36;;;;;;;;;;;;;;;17.77;100.00;99055.50;5080366;28;19924;-79
2021/09/16 02:37:03;;;;;;;;;;;;;;;17.79;100.00;99058.66;5104048;28;19924;-79
2021/09/16 02:39:30;;;;;;;;;;;;;;;17.99;100.00;99062.56;5115019;28;19930;-80
2021/09/16 02:41:57;;;;;;;;;;;;;;;17.96;100.00;99055.00;5107919;28;20035;-80
2021/09/16 02:44:24;;;;;;;;;;;;;;;18.02;100.00;99055.19;5090221;28;19935;-80
2021/09/16 02:46:52;;;;;;;;;;;;;;;17.88;100.00;99065.09;5066189;28;20375;-80
2021/09/16 02:49:19;;;;;;;;;;;;;;;18.14;100.00;99054.22;5085392;28;19974;-80
2021/09/16 02:51:46;;;;;;;;;;;;;;;18.06;100.00;99052.97;5060537;28;20339;-80
2021/09/16 02:54:13;;;;;;;;;;;;;;;18.26;100.00;99043.97;5105047;28;19924;-79
2021/09/16 02:56:40;;;;;;;;;;;;;;;17.93;100.00;99044.66;5115148;28;19945;-79
2021/09/16 02:59:08;;;;;;;;;;;;;;;18.28;100.00;99038.63;5114943;28;19928;-79
2021/09/16 03:01:35;;;;;;;;;;;;;;;18.08;100.00;99036.31;5096551;28;19946;-80
2021/09/16 03:04:02;;;;;;;;;;;;;;;18.19;100.00;99042.25;5115068;28;19924;-80
2021/09/16 03:06:29;;;;;;;;;;;;;;;18.09;100.00;99042.75;5097145;28;19928;-79
2021/09/16 03:08:59;;;;;;;;;;;;;;;18.19;100.00;99036.59;5099801;28;20061;-80
2021/09/16 03:11:26;;;;;;;;;;;;;;;18.24;100.00;99027.47;5067758;28;20015;-80
2021/09/16 03:13:53;;;;;;;;;;;;;;;18.49;100.00;99029.16;5094539;28;19925;-80
2021/09/16 03:16:21;;;;;;;;;;;;;;;18.28;100.00;99028.06;5070413;28;20470;-80
2021/09/16 03:18:48;;;;;;;;;;;;;;;18.42;100.00;99033.09;5080208;28;19931;-80
2021/09/16 03:21:15;;;;;;;;;;;;;;;18.20;100.00;99038.19;5081139;28;19927;-80
2021/09/16 03:23:42;;;;;;;;;;;;;;;18.49;100.00;99026.31;5085401;28;19944;-80
2021/09/16 03:26:10;;;;;;;;;;;;;;;18.30;100.00;99030.44;5097644;28;20282;-80
2021/09/16 03:28:38;;;;;;;;;;;;;;;18.23;100.00;99030.78;5087569;28;20015;-79
2021/09/16 03:31:07;;;;;;;;;;;;;;;18.08;100.00;99025.00;5090405;28;19924;-80
2021/09/16 03:33:34;;;;;;;;;;;;;;;18.28;100.00;99016.75;5067472;28;19923;-79
2021/09/16 03:36:02;;;;;;;;;;;;;;;18.18;100.00;99018.06;5070046;28;20022;-80
2021/09/16 03:38:29;;;;;;;;;;;;;;;18.36;100.00;99026.47;5099493;28;20407;-80
2021/09/16 03:40:56;;;;;;;;;;;;;;;18.08;100.00;99033.50;5102977;28;20538;-80
2021/09/16 03:43:23;;;;;;;;;;;;;;;17.76;100.00;99037.00;5099583;28;19924;-79
2021/09/16 03:45:50;;;;;;;;;;;;;;;18.30;100.00;99034.06;5096337;28;19930;-80
2021/09/16 03:48:17;;;;;;;;;;;;;;;18.18;100.00;99037.06;5090890;28;19931;-79
2021/09/16 03:50:44;;;;;;;;;;;;;;;18.26;100.00;99035.47;5105620;28;19924;-80
2021/09/16 03:53:12;;;;;;;;;;;;;;;18.01;100.00;99047.94;5094412;28;19924;-80
2021/09/16 03:55:40;;;;;;;;;;;;;;;17.92;100.00;99039.47;5089849;28;19951;-79
2021/09/16 03:58:08;;;;;;;;;;;;;;;17.93;100.00;99046.72;5096049;28;19931;-80
2021/09/16 04:00:36;;;;;;;;;;;;;;;17.39;100.00;99047.47;5107666;28;19959;-80
2021/09/16 04:03:10;;;;;;;;;;;;;;;17.31;100.00;99048.28;5084990;28;20359;-80
2021/09/16 04:05:40;;;;;;;;;;;;;;;17.35;100.00;99052.50;5075921;28;19928;-79
2021/09/16 04:08:07;;;;;;;;;;;;;;;17.29;100.00;99056.41;5106586;28;19959;-80
2021/09/16 04:10:35;;;;;;;;;;;;;;;17.51;100.00;99042.97;5095369;28;19951;-80
2021/09/16 04:13:02;;;;;;;;;;;;;;;17.57;100.00;99041.88;5078878;28;20384;-79
2021/09/16 04:15:29;;;;;;;;;;;;;;;17.15;100.00;99048.53;5082054;28;19935;-79
2021/09/16 04:17:56;;;;;;;;;;;;;;;17.48;100.00;99049.56;5075726;28;19930;-79
2021/09/16 04:20:23;;;;;;;;;;;;;;;17.47;100.00;99048.00;5095581;28;19959;-80
2021/09/16 04:22:50;;;;;;;;;;;;;;;17.33;100.00;99048.56;5098642;28;20374;-80
2021/09/16 04:25:17;;;;;;;;;;;;;;;17.42;100.00;99045.75;5090044;28;19924;-80
2021/09/16 04:27:44;;;;;;;;;;;;;;;17.48;100.00;99043.91;5095729;28;19930;-80
2021/09/16 04:30:12;;;;;;;;;;;;;;;17.51;100.00;99037.31;5117865;28;20364;-80
2021/09/16 04:32:39;;;;;;;;;;;;;;;17.46;100.00;99037.97;5103063;28;20321;-79
2021/09/16 04:35:07;;;;;;;;;;;;;;;17.54;100.00;99027.91;5075776;28;20011;-79
2021/09/16 04:37:34;;;;;;;;;;;;;;;17.53;100.00;99031.97;5092738;28;20263;-80
2021/09/16 04:40:02;;;;;;;;;;;;;;;17.71;100.00;99018.63;5112245;28;19924;-79
2021/09/16 04:42:29;;;;;;;;;;;;;;;17.52;100.00;99027.59;5079035;28;19932;-79
2021/09/16 04:44:56;;;;;;;;;;;;;;;17.45;100.00;99016.59;5097104;28;19928;-80
2021/09/16 04:47:24;;;;;;;;;;;;;;;17.50;100.00;99021.63;5079574;28;19924;-79
2021/09/16 04:49:51;;;;;;;;;;;;;;;17.26;100.00;99015.00;5076298;28;19928;-80
2021/09/16 04:52:18;;;;;;;;;;;;;;;17.42;100.00;99031.63;5097175;28;19924;-79
2021/09/16 04:54:45;;;;;;;;;;;;;;;17.47;100.00;99031.03;5078979;28;19931;-79
2021/09/16 04:57:12;;;;;;;;;;;;;;;17.44;100.00;99026.34;5085703;28;19928;-80
2021/09/16 04:59:39;;;;;;;;;;;;;;;17.35;100.00;99024.28;5117366;28;19932;-80
2021/09/16 05:02:06;;;;;;;;;;;;;;;17.41;100.00;99032.88;5079599;28;19924;-79
2021/09/16 05:04:33;;;;;;;;;;;;;;;17.40;100.00;99028.50;5096556;28;19924;-80
2021/09/16 05:07:00;;;;;;;;;;;;;;;17.35;100.00;99024.28;5111345;28;19943;-80
2021/09/16 05:09:27;;;;;;;;;;;;;;;17.23;100.00;99018.75;5045456;28;20045;-80
2021/09/16 05:11:55;;;;;;;;;;;;;;;17.17;100.00;99023.47;5092850;28;19924;-79
2021/09/16 05:14:22;;;;;;;;;;;;;;;17.43;100.00;99019.09;5096562;28;19931;-79
2021/09/16 05:16:49;;;;;;;;;;;;;;;17.66;100.00;99021.31;5096392;28;19938;-80
2021/09/16 05:19:17;;;;;;;;;;;;;;;17.64;100.00;99027.44;5100250;28;19924;-80
2021/09/16 05:21:45;;;;;;;;;;;;;;;17.52;100.00;99030.44;5070636;28;19961;-79
2021/09/16 05:24:16;;;;;;;;;;;;;;;17.52;100.00;99022.72;5101429;28;19924;-80
2021/09/16 05:26:44;;;;;;;;;;;;;;;17.47;100.00;99019.75;5104362;28;19924;-80
2021/09/16 05:29:12;;;;;;;;;;;;;;;17.41;100.00;99028.03;5102474;28;19931;-80
2021/09/16 05:31:39;;;;;;;;;;;;;;;17.32;100.00;99032.88;5099501;28;19938;-79
2021/09/16 05:34:07;;;;;;;;;;;;;;;17.35;100.00;99035.56;5088212;28;20322;-80
2021/09/16 05:36:34;;;;;;;;;;;;;;;17.23;100.00;99035.72;5103528;28;19967;-80
2021/09/16 05:39:01;;;;;;;;;;;;;;;17.33;100.00;99048.56;5094643;28;19924;-80
2021/09/16 05:41:30;;;;;;;;;;;;;;;17.04;100.00;99048.22;5098140;28;19963;-80
2021/09/16 05:43:57;;;;;;;;;;;;;;;17.25;100.00;99052.97;5110117;28;20287;-79
2021/09/16 05:46:26;;;;;;;;;;;;;;;17.27;100.00;99062.53;5105702;28;19998;-79
2021/09/16 05:48:53;;;;;;;;;;;;;;;17.36;100.00;99068.19;5083519;28;20038;-79
2021/09/16 05:51:20;;;;;;;;;;;;;;;17.32;100.00;99066.78;5077473;28;19962;-78
2021/09/16 05:53:47;;;;;;;;;;;;;;;17.16;100.00;99064.25;5115665;28;19957;-80
2021/09/16 05:56:14;;;;;;;;;;;;;;;17.46;100.00;99074.69;5095953;28;19952;-79
2021/09/16 05:58:41;;;;;;;;;;;;;;;17.49;100.00;99082.22;5086517;28;20351;-81
2021/09/16 06:01:08;;;;;;;;;;;;;;;17.05;100.00;99066.72;5103976;28;19931;-80
2021/09/16 06:03:35;;;;;;;;;;;;;;;17.31;100.00;99065.22;5060803;28;19998;-80
2021/09/16 06:06:02;;;;;;;;;;;;;;;17.52;100.00;99062.25;5074091;28;19930;-79
2021/09/16 06:08:29;;;;;;;;;;;;;;;17.77;100.00;99049.84;5096051;28;19934;-80
2021/09/16 06:10:57;;;;;;;;;;;;;;;17.79;100.00;99058.66;5100408;28;19934;-82
2021/09/16 06:13:24;;;;;;;;;;;;;;;17.89;100.00;99063.03;5091569;28;19923;-81
2021/09/16 06:15:51;;;;;;;;;;;;;;;18.06;100.00;99055.78;5112268;28;20413;-80
2021/09/16 06:18:18;;;;;;;;;;;;;;;17.94;100.00;99056.75;5102339;28;20288;-80
2021/09/16 06:20:45;;;;;;;;;;;;;;;18.61;100.00;99059.28;5113876;28;20002;-80
2021/09/16 06:23:12;;;;;;;;;;;;;;;18.12;100.00;99053.91;5108106;28;19931;-78
2021/09/16 06:25:40;;;;;;;;;;;;;;;18.09;100.00;99054.84;5090790;28;19951;-78
2021/09/16 06:28:08;;;;;;;;;;;;;;;18.34;100.00;99065.00;5083966;28;19931;-78
2021/09/16 06:30:36;;;;;;;;;;;;;;;18.76;100.00;99062.97;5097041;28;20290;-83
2021/09/16 06:33:03;;;;;;;;;;;;;;;18.66;100.00;99070.72;5079891;28;19923;-77
2021/09/16 06:35:30;;;;;;;;;;;;;;;18.09;100.00;99071.00;5075441;28;19928;-76
2021/09/16 06:37:57;;;;;;;;;;;;;;;18.13;100.00;99089.38;5111797;28;19928;-76
2021/09/16 06:40:24;;;;;;;;;;;;;;;18.41;100.00;99090.16;5114862;28;19924;-77
2021/09/16 06:42:51;;;;;;;;;;;;;;;18.45;100.00;99088.72;5096317;28;19927;-77
2021/09/16 06:45:19;;;;;;;;;;;;;;;18.40;100.00;99080.91;5094897;28;20351;-77
2021/09/16 06:47:46;;;;;;;;;;;;;;;18.64;100.00;99083.78;5095219;28;19927;-77
2021/09/16 06:50:13;;;;;;;;;;;;;;;18.57;100.00;99087.75;5061123;28;19927;-77
2021/09/16 06:52:40;;;;;;;;;;;;;;;18.64;100.00;99084.59;5113774;28;19932;-77
2021/09/16 06:55:07;;;;;;;;;;;;;;;18.67;100.00;99086.47;5081140;28;19930;-77
2021/09/16 06:57:37;;;;;;;;;;;;;;;18.53;100.00;99092.00;5113876;28;19924;-77
2021/09/16 07:00:05;;;;;;;;;;;;;;;18.68;100.00;99102.16;5113205;28;19928;-77
2021/09/16 07:02:34;;;;;;;;;;;;;;;18.33;100.00;99100.97;5095201;28;19927;-77
2021/09/16 07:05:01;;;;;;;;;;;;;;;18.37;100.00;99104.47;5113550;28;19923;-77
2021/09/16 07:07:28;;;;;;;;;;;;;;;18.50;100.00;99107.09;5095417;28;19959;-77
2021/09/16 07:09:55;;;;;;;;;;;;;;;18.48;100.00;99104.75;5074167;28;19928;-77
2021/09/16 07:12:23;;;;;;;;;;;;;;;18.48;100.00;99107.56;5095240;28;19924;-77
2021/09/16 07:14:49;;;;;;;;;;;;;;;18.11;100.00;99111.72;5113060;28;19931;-78
2021/09/16 07:17:17;;;;;;;;;;;;;;;18.62;100.00;99109.75;5093118;28;19951;-77
2021/09/16 07:19:44;;;;;;;;;;;;;;;18.59;100.00;99105.03;5078497;28;19927;-78
2021/09/16 07:22:11;;;;;;;;;;;;;;;18.47;100.00;99106.00;5100757;28;19924;-78
2021/09/16 07:24:38;;;;;;;;;;;;;;;17.72;100.00;99116.28;5074968;28;20361;-78
2021/09/16 07:27:05;;;;;;;;;;;;;;;17.68;100.00;99120.50;5058266;28;19924;-78
2021/09/16 07:29:32;;;;;;;;;;;;;;;18.07;100.00;99125.22;5074498;28;19939;-78
2021/09/16 07:31:59;;;;;;;;;;;;;;;17.90;100.00;99127.56;5092658;28;20283;-78
2021/09/16 07:34:34;;;;;;;;;;;;;;;17.74;100.00;99132.75;5075860;28;20447;-78
2021/09/16 07:37:01;;;;;;;;;;;;;;;18.02;100.00;99134.34;5066594;28;19928;-77
2021/09/16 07:39:28;;;;;;;;;;;;;;;18.94;100.00;99131.63;5097724;28;19928;-77
2021/09/16 07:41:55;;;;;;;;;;;;;;;20.00;100.00;99117.75;5074826;28;19950;-78
2021/09/16 07:44:22;;;;;;;;;;;;;;;19.15;100.00;99107.94;5092630;28;19924;-78
2021/09/16 07:46:50;;;;;;;;;;;;;;;20.25;100.00;99115.16;5074596;28;19930;-78
2021/09/16 07:49:25;;;;;;;;;;;;;;;20.58;100.00;99112.94;5092860;28;19946;-78
2021/09/16 07:51:52;;;;;;;;;;;;;;;21.83;100.00;99103.22;5092460;28;20364;-78
2021/09/16 07:54:19;;;;;;;;;;;;;;;23.52;100.00;99089.47;5092608;28;19946;-78
2021/09/16 07:56:46;;;;;;;;;;;;;;;24.16;100.00;99080.88;5078790;28;19976;-78
2021/09/16 07:59:14;;;;;;;;;;;;;;;25.12;100.00;99082.00;5078590;28;19931;-78
2021/09/16 08:01:41;;;;;;;;;;;;;;;25.72;100.00;99078.22;5078553;28;20387;-78
2021/09/16 08:04:08;;;;;;;;;;;;;;;26.01;100.00;99077.59;5096921;28;20006;-78
2021/09/16 08:06:35;;;;;;;;;;;;;;;26.74;100.00;99077.91;5076777;28;19931;-78
2021/09/16 08:09:01;;;;;;;;;;;;;;;24.60;100.00;99060.97;5096260;28;19954;-79
2021/09/16 08:11:29;;;;;;;;;;;;;;;25.52;100.00;99058.53;5078469;28;19924;-78
2021/09/16 08:13:56;;;;;;;;;;;;;;;26.02;100.00;99067.69;5078298;28;20287;-78
2021/09/16 08:16:23;;;;;;;;;;;;;;;25.97;100.00;99067.72;5072205;28;20010;-78
2021/09/16 08:18:50;;;;;;;;;;;;;;;25.86;100.00;99074.25;5102338;28;20326;-78
2021/09/16 08:21:17;;;;;;;;;;;;;;;25.41;100.00;99081.47;5098409;28;20379;-78
2021/09/16 08:23:45;;;;;;;;;;;;;;;25.57;100.00;99076.97;5105216;28;20376;-78
2021/09/16 08:26:12;;;;;;;;;;;;;;;25.50;100.00;99084.03;5095978;28;19969;-79
2021/09/16 08:28:39;;;;;;;;;;;;;;;24.91;100.00;99077.88;5096002;28;19924;-78
2021/09/16 08:31:06;;;;;;;;;;;;;;;25.48;100.00;99092.34;5078020;28;20331;-78
2021/09/16 08:33:34;;;;;;;;;;;;;;;25.20;100.00;99093.69;5078189;28;19985;-78
2021/09/16 08:36:01;;;;;;;;;;;;;;;25.33;100.00;99100.47;5077700;28;20295;-78
2021/09/16 08:38:28;;;;;;;;;;;;;;;25.18;100.00;99097.06;5095787;28;19931;-78
2021/09/16 08:40:56;;;;;;;;;;;;;;;24.18;100.00;99096.22;5073707;28;20405;-78
2021/09/16 08:43:27;;;;;;;;;;;;;;;24.72;100.00;99100.47;5090125;28;20035;-78
2021/09/16 08:45:55;;;;;;;;;;;;;;;24.80;100.00;99106.44;5116207;28;19923;-78
2021/09/16 08:48:21;;;;;;;;;;;;;;;24.96;100.00;99102.84;5116081;28;20022;-78
2021/09/16 08:50:48;;;;;;;;;;;;;;;24.67;100.00;99103.34;5097928;28;19932;-78
2021/09/16 08:53:20;;;;;;;;;;;;;;;24.54;100.00;99106.66;5116335;28;19924;-78
2021/09/16 08:55:49;;;;;;;;;;;;;;;24.68;100.00;99113.47;5097916;28;19924;-78
2021/09/16 08:58:17;;;;;;;;;;;;;;;24.03;100.00;99112.78;5093768;28;20432;-78
2021/09/16 09:00:45;;;;;;;;;;;;;;;23.67;100.00;99112.88;5096256;28;19967;-78
2021/09/16 09:03:12;;;;;;;;;;;;;;;23.10;100.00;99122.34;5097101;28;19955;-78
2021/09/16 09:05:40;;;;;;;;;;;;;;;22.87;100.00;99128.38;5114626;28;19974;-78
2021/09/16 09:08:07;;;;;;;;;;;;;;;22.92;100.00;99125.56;5097103;28;19923;-78
2021/09/16 09:10:34;;;;;;;;;;;;;;;23.21;100.00;99118.00;5097485;28;19924;-78
2021/09/16 09:13:03;;;;;;;;;;;;;;;23.76;100.00;99133.41;5097418;28;19973;-78
2021/09/16 09:15:30;;;;;;;;;;;;;;;23.28;100.00;99131.81;5097384;28;20027;-78
2021/09/16 09:18:10;;;;;;;;;;;;;;;22.66;100.00;99133.38;5080386;28;20374;-78
2021/09/16 09:20:55;;;;;;;;;;;;;;;21.70;100.00;99144.63;5097420;28;20173;-78
2021/09/16 09:23:29;;;;;;;;;;;;;;;20.80;100.00;99152.28;5097465;28;19924;-78
2021/09/16 09:25:57;;;;;;;;;;;;;;;20.42;100.00;99158.03;5097119;28;19924;-78
2021/09/16 09:28:34;;;;;;;;;;;;;;;20.56;100.00;99160.09;5097233;28;19968;-78
2021/09/16 09:31:14;;;;;;;;;;;;;;;20.06;100.00;99170.47;5115455;28;20072;-77
2021/09/16 09:33:41;;;;;;;;;;;;;;;20.21;100.00;99165.66;5083446;28;19977;-78
2021/09/16 09:36:13;;;;;;;;;;;;;;;20.07;100.00;99176.94;5115260;28;19951;-78
2021/09/16 09:38:57;;;;;;;;;;;;;;;20.49;100.00;99180.38;5096673;28;19928;-78
2021/09/16 09:41:30;;;;;;;;;;;;;;;20.20;100.00;99174.66;5115262;28;20056;-77
2021/09/16 09:44:23;;;;;;;;;;;;;;;20.09;100.00;99177.22;5101639;28;20383;-78
2021/09/16 09:46:52;;;;;;;;;;;;;;;20.14;100.00;99182.25;5096860;28;20012;-78
2021/09/16 09:49:24;;;;;;;;;;;;;;;20.36;100.00;99177.81;5115087;28;19931;-78
2021/09/16 09:51:56;;;;;;;;;;;;;;;20.16;100.00;99174.81;5079910;28;19927;-77
2021/09/16 09:54:27;;;;;;;;;;;;;;;20.57;100.00;99175.88;5096630;28;19927;-78
2021/09/16 09:56:57;;;;;;;;;;;;;;;19.92;100.00;99174.03;5115184;28;19924;-77
2021/09/16 09:59:25;;;;;;;;;;;;;;;20.07;100.00;99176.94;5096516;28;19931;-78
2021/09/16 10:02:03;;;;;;;;;;;;;;;20.21;100.00;99177.00;5096824;28;20170;-78
2021/09/16 10:04:31;;;;;;;;;;;;;;;19.97;100.00;99166.91;5101619;28;19969;-78
2021/09/16 10:06:58;;;;;;;;;;;;;;;20.09;100.00;99168.72;5096318;28;20310;-77
2021/09/16 10:09:28;;;;;;;;;;;;;;;20.32;100.00;99174.38;5095508;28;20011;-78
2021/09/16 10:11:58;;;;;;;;;;;;;;;19.72;100.00;99170.28;5106529;28;20014;-77
2021/09/16 10:14:25;;;;;;;;;;;;;;;19.63;100.00;99177.56;5114371;28;19931;-78
2021/09/16 10:16:57;;;;;;;;;;;;;;;19.82;100.00;99175.38;5097340;28;19923;-77
2021/09/16 10:19:25;;;;;;;;;;;;;;;19.84;100.00;99174.91;5095098;28;19931;-77
2021/09/16 10:21:52;;;;;;;;;;;;;;;20.04;100.00;99170.16;5096145;28;19927;-78
2021/09/16 10:24:25;;;;;;;;;;;;;;;20.10;100.00;99165.38;5095790;28;19924;-77
2021/09/16 10:26:52;;;;;;;;;;;;;;;20.34;100.00;99157.63;5096060;28;19936;-77
2021/09/16 10:29:28;;;;;;;;;;;;;;;20.44;100.00;99147.00;5095922;28;19963;-77
2021/09/16 10:32:04;;;;;;;;;;;;;;;20.59;100.00;99142.88;5114167;28;19931;-77
2021/09/16 10:34:55;;;;;;;;;;;;;;;20.62;100.00;99139.06;5079186;28;19976;-77
2021/09/16 10:37:24;;;;;;;;;;;;;;;20.43;100.00;99128.41;5075326;28;20013;-77
2021/09/16 10:39:51;;;;;;;;;;;;;;;20.58;100.00;99134.88;5093513;28;19935;-77
2021/09/16 10:42:38;;;;;;;;;;;;;;;21.11;100.00;99141.97;5095806;28;19931;-77
2021/09/16 10:45:06;;;;;;;;;;;;;;;21.15;100.00;99136.09;5095561;28;19924;-77
2021/09/16 10:47:33;;;;;;;;;;;;;;;21.47;100.00;99129.34;5078730;28;19930;-78
2021/09/16 10:50:17;;;;;;;;;;;;;;;21.49;100.00;99121.09;5113808;28;19927;-78
2021/09/16 10:52:44;;;;;;;;;;;;;;;21.35;100.00;99128.41;5095506;28;19928;-78
2021/09/16 10:55:11;;;;;;;;;;;;;;;21.70;100.00;99134.06;5095554;28;19958;-78
2021/09/16 10:57:51;;;;;;;;;;;;;;;21.41;100.00;99139.84;5113741;28;19927;-77
2021/09/16 11:00:38;;;;;;;;;;;;;;;21.26;100.00;99139.88;5090122;28;20245;-79
2021/09/16 11:03:17;;;;;;;;;;;;;;;21.06;100.00;99144.72;5110473;27;19912;-78
2021/09/16 11:05:58;;;;;;;;;;;;;;;21.69;100.00;99141.00;5089763;28;19939;-79
2021/09/16 11:08:45;;;;;;;;;;;;;;;22.19;100.00;99133.88;5089062;28;19928;-79
2021/09/16 11:11:13;;;;;;;;;;;;;;;22.09;100.00;99126.78;5088861;28;20445;-79
2021/09/16 11:13:41;;;;;;;;;;;;;;;22.39;100.00;99118.81;5088979;28;19967;-79
2021/09/16 11:16:09;;;;;;;;;;;;;;;21.48;100.00;99125.22;5088680;28;20011;-79
2021/09/16 11:18:39;;;;;;;;;;;;;;;22.13;100.00;99130.19;5089840;28;19967;-79
2021/09/16 11:21:20;;;;;;;;;;;;;;;22.25;100.00;99131.13;5110052;27;19912;-79
2021/09/16 11:23:58;;;;;;;;;;;;;;;22.30;100.00;99127.53;5110514;27;19912;-79
2021/09/16 11:26:38;;;;;;;;;;;;;;;21.84;100.00;99127.50;5090271;28;19920;-79
2021/09/16 11:29:16;;;;;;;;;;;;;;;22.11;100.00;99121.41;5110291;27;19912;-79
2021/09/16 11:32:04;;;;;;;;;;;;;;;22.47;100.00;99115.03;5110465;27;19912;-79
2021/09/16 11:34:52;;;;;;;;;;;;;;;22.70;100.00;99110.38;5110192;27;19912;-79
2021/09/16 11:37:40;;;;;;;;;;;;;;;22.87;100.00;99109.19;5090065;28;19912;-79
2021/09/16 11:40:25;;;;;;;;;;;;;;;23.21;100.00;99104.53;5090083;28;19916;-79
2021/09/16 11:43:05;;;;;;;;;;;;;;;22.78;100.00;99106.53;5110442;27;19916;-79
2021/09/16 11:45:46;;;;;;;;;;;;;;;22.59;100.00;99111.03;5090174;28;19912;-79
2021/09/16 11:48:26;;;;;;;;;;;;;;;21.86;100.00;99115.63;5089963;28;19912;-78
2021/09/16 11:51:05;;;;;;;;;;;;;;;22.20;100.00;99104.16;5110216;27;19913;-79
2021/09/16 11:53:43;;;;;;;;;;;;;;;22.30;100.00;99105.56;5110349;27;19916;-79
2021/09/16 11:56:20;;;;;;;;;;;;;;;22.03;100.00;99108.88;5068937;27;2062077;-79
2021/09/16 11:59:06;;;;;;;;;;;;;;;21.86;100.00;99107.91;5090290;28;19912;-87
2021/09/16 12:01:53;;;;;;;;;;;;;;;21.63;100.00;99097.50;5041017;27;2028403;-80
2021/09/16 12:04:39;;;;;;;;;;;;;;;22.20;100.00;99109.06;5111502;27;19912;-80
2021/09/16 12:07:18;;;;;;;;;;;;;;;22.63;100.00;99097.34;5152860;27;19911;-80
2021/09/16 12:10:00;;;;;;;;;;;;;;;22.77;100.00;99102.13;5142489;27;19961;-80
2021/09/16 12:12:40;;;;;;;;;;;;;;;23.26;100.00;99103.81;5133989;27;19916;-80
2021/09/16 12:15:22;;;;;;;;;;;;;;;22.88;100.00;99093.69;5111546;27;19912;-80
2021/09/16 12:18:01;;;;;;;;;;;;;;;22.39;100.00;99108.22;5091124;28;19913;-80
2021/09/16 12:20:41;;;;;;;;;;;;;;;22.12;100.00;99111.56;5091066;28;19916;-80
2021/09/16 12:23:21;;;;;;;;;;;;;;;21.43;100.00;99112.47;5111697;27;20314;-80
2021/09/16 12:26:14;;;;;;;;;;;;;;;21.08;100.00;99111.69;5111603;27;19916;-79
2021/09/16 12:29:01;;;;;;;;;;;;;;;21.23;100.00;99111.69;5089309;27;2035068;-79
2021/09/16 12:31:45;;;;;;;;;;;;;;;21.00;100.00;99096.38;5091331;28;19917;-79
2021/09/16 12:34:27;;;;;;;;;;;;;;;20.92;100.00;99105.75;5091066;28;19912;-80
2021/09/16 12:37:06;;;;;;;;;;;;;;;20.71;100.00;99106.94;5083905;27;1982561;-81
2021/09/16 12:39:46;;;;;;;;;;;;;;;21.25;100.00;99101.38;5091494;28;20480;-81
2021/09/16 12:42:25;;;;;;;;;;;;;;;21.34;100.00;99103.31;5091608;28;19939;-81
2021/09/16 12:45:14;;;;;;;;;;;;;;;21.08;100.00;99091.81;5106791;27;20329;-81
2021/09/16 12:47:54;;;;;;;;;;;;;;;20.88;100.00;99094.59;5089964;28;19912;-80
2021/09/16 12:50:35;;;;;;;;;;;;;;;21.08;100.00;99091.81;5091282;28;19939;-80